createdAt,value
2023-04-28T00:00:05.914Z,7.30
2023-04-28T00:00:59.930Z,7.30
2023-04-28T00:02:00.002Z,7.25
2023-04-28T00:03:00.238Z,7.25
2023-04-28T00:04:00.534Z,7.30
2023-04-28T00:05:00.447Z,7.25
2023-04-28T00:06:00.576Z,7.25
2023-04-28T00:07:00.424Z,7.25
2023-04-28T00:08:00.523Z,7.25
2023-04-28T00:09:00.623Z,7.25
2023-04-28T00:10:00.752Z,7.25
2023-04-28T00:11:00.817Z,7.20
2023-04-28T00:12:00.898Z,7.25
2023-04-28T00:13:00.984Z,7.30
2023-04-28T00:14:01.059Z,7.30
2023-04-28T00:15:01.164Z,7.25
2023-04-28T00:16:01.241Z,7.30
2023-04-28T00:17:01.306Z,7.30
2023-04-28T00:18:01.409Z,7.25
2023-04-28T00:19:01.439Z,7.25
2023-04-28T00:20:01.530Z,7.25
2023-04-28T00:21:01.676Z,7.25
2023-04-28T00:22:01.711Z,7.25
2023-04-28T00:23:01.779Z,7.25
2023-04-28T00:24:01.856Z,7.25
2023-04-28T00:25:01.931Z,7.25
2023-04-28T00:26:02.010Z,7.25
2023-04-28T00:27:02.090Z,7.25
2023-04-28T00:28:02.160Z,7.25
2023-04-28T00:29:02.230Z,7.25
2023-04-28T00:30:02.327Z,7.25
2023-04-28T00:31:08.851Z,7.25
2023-04-28T00:32:02.568Z,7.30
2023-04-28T00:33:02.637Z,7.30
2023-04-28T00:34:02.648Z,7.30
2023-04-28T00:35:02.743Z,7.30
2023-04-28T00:36:02.841Z,7.25
2023-04-28T00:37:02.893Z,7.30
2023-04-28T00:38:02.979Z,7.30
2023-04-28T00:39:03.052Z,7.30
2023-04-28T00:40:03.133Z,7.25
2023-04-28T00:41:03.202Z,7.36
2023-04-28T00:42:03.282Z,7.09
2023-04-28T00:43:03.351Z,7.41
2023-04-28T00:44:03.431Z,7.25
2023-04-28T00:45:03.519Z,7.30
2023-04-28T00:46:03.667Z,7.36
2023-04-28T00:47:03.658Z,7.25
2023-04-28T00:48:03.791Z,7.09
2023-04-28T00:49:03.800Z,6.98
2023-04-28T00:50:03.868Z,7.09
2023-04-28T00:51:03.981Z,7.09
2023-04-28T00:52:04.052Z,7.09
2023-04-28T00:53:04.118Z,7.25
2023-04-28T00:54:04.198Z,7.14
2023-04-28T00:55:04.279Z,7.04
2023-04-28T00:56:04.344Z,7.04
2023-04-28T00:57:04.415Z,7.09
2023-04-28T00:58:04.501Z,7.30
2023-04-28T00:59:04.562Z,7.09
2023-04-28T01:00:04.653Z,7.09
2023-04-28T01:01:04.753Z,7.09
2023-04-28T01:02:10.906Z,7.04
2023-04-28T01:03:05.051Z,7.09
2023-04-28T01:04:05.237Z,7.09
2023-04-28T01:05:05.055Z,7.04
2023-04-28T01:06:05.133Z,7.09
2023-04-28T01:07:05.208Z,7.04
2023-04-28T01:08:05.285Z,7.04
2023-04-28T01:09:05.350Z,7.14
2023-04-28T01:10:05.432Z,7.09
2023-04-28T01:11:05.512Z,7.09
2023-04-28T01:12:05.610Z,7.09
2023-04-28T01:13:05.677Z,7.09
2023-04-28T01:14:05.734Z,7.09
2023-04-28T01:15:05.824Z,7.04
2023-04-28T01:16:05.931Z,7.09
2023-04-28T01:17:06.006Z,7.09
2023-04-28T01:18:06.131Z,7.04
2023-04-28T01:19:06.150Z,7.09
2023-04-28T01:20:06.222Z,7.04
2023-04-28T01:21:06.301Z,7.20
2023-04-28T01:22:06.378Z,7.09
2023-04-28T01:23:06.453Z,7.09
2023-04-28T01:24:06.540Z,6.98
2023-04-28T01:25:06.619Z,7.09
2023-04-28T01:26:06.694Z,7.14
2023-04-28T01:27:06.787Z,7.04
2023-04-28T01:28:06.862Z,7.09
2023-04-28T01:29:06.935Z,7.09
2023-04-28T01:30:07.026Z,7.14
2023-04-28T01:31:07.105Z,7.09
2023-04-28T01:32:07.154Z,7.09
2023-04-28T01:33:13.419Z,7.25
2023-04-28T01:34:07.303Z,7.04
2023-04-28T01:35:07.382Z,7.09
2023-04-28T01:36:07.469Z,7.09
2023-04-28T01:37:07.565Z,7.04
2023-04-28T01:38:07.634Z,7.09
2023-04-28T01:39:07.692Z,7.09
2023-04-28T01:40:07.746Z,7.09
2023-04-28T01:41:07.830Z,7.09
2023-04-28T01:42:07.900Z,7.09
2023-04-28T01:43:07.978Z,7.09
2023-04-28T01:44:08.075Z,7.09
2023-04-28T01:45:08.130Z,7.09
2023-04-28T01:46:08.231Z,7.09
2023-04-28T01:47:08.275Z,7.04
2023-04-28T01:48:08.491Z,7.09
2023-04-28T01:49:08.483Z,7.09
2023-04-28T01:50:08.544Z,7.04
2023-04-28T01:51:08.624Z,7.04
2023-04-28T01:52:08.701Z,7.09
2023-04-28T01:53:08.768Z,7.04
2023-04-28T01:54:08.875Z,7.04
2023-04-28T01:55:08.940Z,7.09
2023-04-28T01:56:09.014Z,7.09
2023-04-28T01:57:09.095Z,7.09
2023-04-28T01:58:09.164Z,7.09
2023-04-28T01:59:09.270Z,7.09
2023-04-28T02:00:09.341Z,7.09
2023-04-28T02:01:09.473Z,7.04
2023-04-28T02:02:09.526Z,7.04
2023-04-28T02:03:09.741Z,7.09
2023-04-28T02:04:15.929Z,7.09
2023-04-28T02:05:09.755Z,7.04
2023-04-28T02:06:09.829Z,7.04
2023-04-28T02:07:09.900Z,7.09
2023-04-28T02:08:09.979Z,7.09
2023-04-28T02:09:10.058Z,7.09
2023-04-28T02:10:10.182Z,7.04
2023-04-28T02:11:10.231Z,7.09
2023-04-28T02:12:10.298Z,7.04
2023-04-28T02:13:10.370Z,7.14
2023-04-28T02:14:10.473Z,7.09
2023-04-28T02:15:10.539Z,7.09
2023-04-28T02:16:10.706Z,7.09
2023-04-28T02:17:10.678Z,7.09
2023-04-28T02:18:10.735Z,7.09
2023-04-28T02:19:10.823Z,7.09
2023-04-28T02:20:10.877Z,7.04
2023-04-28T02:21:11.009Z,7.09
2023-04-28T02:22:11.066Z,7.09
2023-04-28T02:23:11.131Z,7.04
2023-04-28T02:24:11.218Z,7.04
2023-04-28T02:25:11.289Z,7.04
2023-04-28T02:26:11.376Z,7.63
2023-04-28T02:27:11.461Z,7.09
2023-04-28T02:28:11.534Z,7.14
2023-04-28T02:29:11.620Z,7.09
2023-04-28T02:30:11.698Z,7.14
2023-04-28T02:31:11.838Z,7.04
2023-04-28T02:32:11.883Z,7.04
2023-04-28T02:33:11.990Z,7.09
2023-04-28T02:34:12.033Z,7.09
2023-04-28T02:35:18.097Z,7.04
2023-04-28T02:36:12.216Z,7.09
2023-04-28T02:37:12.283Z,7.09
2023-04-28T02:38:12.344Z,7.14
2023-04-28T02:39:12.420Z,7.09
2023-04-28T02:40:12.484Z,7.09
2023-04-28T02:41:12.556Z,7.04
2023-04-28T02:42:12.643Z,7.09
2023-04-28T02:43:12.716Z,7.04
2023-04-28T02:44:12.856Z,7.09
2023-04-28T02:45:12.885Z,7.04
2023-04-28T02:46:13.948Z,7.09
2023-04-28T02:47:13.066Z,7.09
2023-04-28T02:48:13.181Z,7.09
2023-04-28T02:49:13.231Z,7.04
2023-04-28T02:50:13.319Z,7.09
2023-04-28T02:51:13.380Z,7.04
2023-04-28T02:52:13.503Z,7.09
2023-04-28T02:53:13.550Z,7.09
2023-04-28T02:54:13.735Z,7.09
2023-04-28T02:55:13.720Z,7.09
2023-04-28T02:56:13.789Z,7.04
2023-04-28T02:57:13.895Z,7.09
2023-04-28T02:58:13.971Z,7.04
2023-04-28T02:59:14.047Z,7.09
2023-04-28T03:00:14.123Z,7.09
2023-04-28T03:01:14.229Z,7.09
2023-04-28T03:02:14.273Z,7.09
2023-04-28T03:03:14.683Z,7.04
2023-04-28T03:04:14.613Z,7.09
2023-04-28T03:05:14.533Z,7.14
2023-04-28T03:06:20.590Z,7.04
2023-04-28T03:07:14.687Z,7.04
2023-04-28T03:08:14.782Z,7.09
2023-04-28T03:09:14.854Z,7.09
2023-04-28T03:10:14.931Z,7.09
2023-04-28T03:11:15.016Z,7.09
2023-04-28T03:12:15.080Z,7.09
2023-04-28T03:13:15.157Z,7.04
2023-04-28T03:14:15.566Z,7.04
2023-04-28T03:15:15.318Z,7.09
2023-04-28T03:16:15.471Z,7.09
2023-04-28T03:17:15.496Z,7.09
2023-04-28T03:18:15.577Z,7.09
2023-04-28T03:19:15.756Z,7.09
2023-04-28T03:20:15.745Z,7.14
2023-04-28T03:21:15.831Z,7.14
2023-04-28T03:22:15.912Z,7.04
2023-04-28T03:23:15.993Z,7.14
2023-04-28T03:24:16.284Z,7.04
2023-04-28T03:25:16.158Z,7.09
2023-04-28T03:26:16.241Z,7.04
2023-04-28T03:27:16.318Z,7.09
2023-04-28T03:28:16.396Z,7.09
2023-04-28T03:29:16.476Z,7.09
2023-04-28T03:30:16.592Z,7.09
2023-04-28T03:31:16.652Z,7.09
2023-04-28T03:32:16.926Z,7.04
2023-04-28T03:33:16.833Z,7.09
2023-04-28T03:34:17.174Z,7.09
2023-04-28T03:35:16.998Z,7.09
2023-04-28T03:36:17.065Z,7.09
2023-04-28T03:37:23.151Z,7.09
2023-04-28T03:38:17.215Z,7.04
2023-04-28T03:39:17.304Z,7.09
2023-04-28T03:40:17.385Z,7.04
2023-04-28T03:41:17.473Z,7.09
2023-04-28T03:42:17.535Z,7.09
2023-04-28T03:43:17.624Z,7.09
2023-04-28T03:44:17.928Z,7.14
2023-04-28T03:45:17.825Z,7.09
2023-04-28T03:46:17.945Z,7.04
2023-04-28T03:47:17.960Z,7.09
2023-04-28T03:48:18.127Z,7.09
2023-04-28T03:49:18.148Z,7.09
2023-04-28T03:50:18.231Z,7.14
2023-04-28T03:51:18.307Z,7.14
2023-04-28T03:52:18.376Z,7.04
2023-04-28T03:53:18.480Z,7.09
2023-04-28T03:54:18.613Z,7.09
2023-04-28T03:55:18.647Z,7.14
2023-04-28T03:56:18.750Z,7.09
2023-04-28T03:57:18.812Z,7.04
2023-04-28T03:58:18.893Z,7.09
2023-04-28T03:59:18.985Z,7.04
2023-04-28T04:00:19.098Z,7.09
2023-04-28T04:01:19.155Z,7.09
2023-04-28T04:02:19.347Z,7.04
2023-04-28T04:03:19.437Z,7.09
2023-04-28T04:04:19.660Z,7.04
2023-04-28T04:05:19.649Z,7.09
2023-04-28T04:06:19.588Z,7.09
2023-04-28T04:07:19.656Z,7.09
2023-04-28T04:08:25.745Z,7.09
2023-04-28T04:09:19.823Z,7.14
2023-04-28T04:10:19.892Z,7.09
2023-04-28T04:11:20.042Z,7.04
2023-04-28T04:12:20.098Z,7.09
2023-04-28T04:13:20.180Z,7.09
2023-04-28T04:14:20.256Z,7.04
2023-04-28T04:15:20.337Z,7.09
2023-04-28T04:16:20.533Z,7.09
2023-04-28T04:17:20.514Z,7.04
2023-04-28T04:18:20.576Z,7.04
2023-04-28T04:19:20.658Z,7.09
2023-04-28T04:20:20.734Z,7.09
2023-04-28T04:21:20.818Z,7.09
2023-04-28T04:22:20.897Z,7.09
2023-04-28T04:23:20.961Z,7.09
2023-04-28T04:24:21.076Z,7.14
2023-04-28T04:25:23.268Z,7.09
2023-04-28T04:26:21.229Z,7.04
2023-04-28T04:27:21.315Z,7.04
2023-04-28T04:28:21.403Z,7.09
2023-04-28T04:29:21.490Z,7.09
2023-04-28T04:30:21.572Z,7.09
2023-04-28T04:31:21.706Z,7.04
2023-04-28T04:32:21.784Z,7.04
2023-04-28T04:33:21.869Z,7.09
2023-04-28T04:34:21.961Z,7.09
2023-04-28T04:35:22.016Z,7.09
2023-04-28T04:36:22.114Z,7.20
2023-04-28T04:37:22.182Z,7.20
2023-04-28T04:38:22.280Z,7.09
2023-04-28T04:39:28.332Z,7.04
2023-04-28T04:40:22.417Z,7.04
2023-04-28T04:41:22.487Z,7.09
2023-04-28T04:42:24.784Z,7.09
2023-04-28T04:43:22.653Z,7.04
2023-04-28T04:44:22.735Z,7.09
2023-04-28T04:45:22.801Z,7.09
2023-04-28T04:46:22.940Z,7.09
2023-04-28T04:47:22.952Z,7.04
2023-04-28T04:48:23.067Z,7.04
2023-04-28T04:49:23.101Z,7.09
2023-04-28T04:50:23.210Z,7.09
2023-04-28T04:51:23.273Z,7.09
2023-04-28T04:52:23.378Z,7.04
2023-04-28T04:53:23.481Z,7.09
2023-04-28T04:54:23.560Z,7.14
2023-04-28T04:55:23.638Z,7.09
2023-04-28T04:56:23.722Z,7.20
2023-04-28T04:57:23.784Z,7.04
2023-04-28T04:58:23.888Z,7.04
2023-04-28T04:59:23.969Z,7.09
2023-04-28T05:00:24.040Z,7.09
2023-04-28T05:01:24.139Z,7.09
2023-04-28T05:02:24.234Z,7.20
2023-04-28T05:03:24.403Z,7.04
2023-04-28T05:04:24.666Z,7.04
2023-04-28T05:05:24.480Z,7.09
2023-04-28T05:06:24.538Z,7.14
2023-04-28T05:07:24.537Z,7.09
2023-04-28T05:08:24.611Z,7.09
2023-04-28T05:09:24.700Z,7.09
2023-04-28T05:10:31.065Z,7.04
2023-04-28T05:11:24.872Z,7.09
2023-04-28T05:12:24.951Z,7.09
2023-04-28T05:13:25.014Z,7.09
2023-04-28T05:14:25.095Z,7.04
2023-04-28T05:15:25.198Z,7.14
2023-04-28T05:16:25.316Z,7.14
2023-04-28T05:17:25.358Z,7.04
2023-04-28T05:18:25.443Z,7.09
2023-04-28T05:19:25.522Z,7.09
2023-04-28T05:20:25.611Z,7.09
2023-04-28T05:21:25.687Z,7.04
2023-04-28T05:22:25.744Z,7.09
2023-04-28T05:23:25.841Z,7.09
2023-04-28T05:24:25.931Z,7.09
2023-04-28T05:25:26.015Z,7.09
2023-04-28T05:26:26.112Z,7.04
2023-04-28T05:27:26.187Z,7.09
2023-04-28T05:28:26.268Z,7.09
2023-04-28T05:29:26.344Z,7.09
2023-04-28T05:30:26.442Z,7.09
2023-04-28T05:31:26.530Z,7.09
2023-04-28T05:32:26.631Z,7.09
2023-04-28T05:33:26.660Z,7.09
2023-04-28T05:34:26.755Z,7.25
2023-04-28T05:35:26.817Z,7.09
2023-04-28T05:36:26.895Z,7.04
2023-04-28T05:37:26.956Z,7.09
2023-04-28T05:38:27.026Z,7.09
2023-04-28T05:39:27.090Z,7.14
2023-04-28T05:40:27.181Z,7.09
2023-04-28T05:41:33.564Z,7.04
2023-04-28T05:42:27.367Z,7.09
2023-04-28T05:43:27.436Z,7.04
2023-04-28T05:44:27.522Z,7.09
2023-04-28T05:45:27.618Z,7.09
2023-04-28T05:46:31.052Z,7.20
2023-04-28T05:47:27.788Z,7.09
2023-04-28T05:48:27.839Z,7.09
2023-04-28T05:49:27.977Z,7.14
2023-04-28T05:50:27.993Z,7.09
2023-04-28T05:51:28.108Z,7.04
2023-04-28T05:52:28.149Z,7.09
2023-04-28T05:53:28.258Z,7.09
2023-04-28T05:54:28.332Z,7.14
2023-04-28T05:55:28.424Z,7.14
2023-04-28T05:56:28.528Z,7.09
2023-04-28T05:57:31.913Z,7.04
2023-04-28T05:58:28.680Z,7.04
2023-04-28T05:59:28.747Z,7.04
2023-04-28T06:00:28.900Z,7.09
2023-04-28T06:01:28.921Z,7.04
2023-04-28T06:02:29.100Z,7.09
2023-04-28T06:03:29.229Z,7.04
2023-04-28T06:04:29.329Z,7.09
2023-04-28T06:05:29.489Z,7.09
2023-04-28T06:06:29.338Z,7.09
2023-04-28T06:07:29.448Z,7.09
2023-04-28T06:08:29.494Z,7.09
2023-04-28T06:09:29.564Z,7.14
2023-04-28T06:10:29.659Z,7.09
2023-04-28T06:11:29.712Z,7.20
2023-04-28T06:12:36.107Z,7.09
2023-04-28T06:13:29.862Z,7.09
2023-04-28T06:14:29.951Z,7.09
2023-04-28T06:15:30.028Z,7.09
2023-04-28T06:16:30.175Z,7.09
2023-04-28T06:17:30.199Z,7.14
2023-04-28T06:18:30.269Z,7.09
2023-04-28T06:19:30.339Z,7.14
2023-04-28T06:20:30.408Z,7.09
2023-04-28T06:21:30.482Z,7.09
2023-04-28T06:22:30.552Z,7.09
2023-04-28T06:23:30.628Z,7.09
2023-04-28T06:24:30.703Z,7.09
2023-04-28T06:25:30.777Z,7.09
2023-04-28T06:26:30.934Z,7.09
2023-04-28T06:27:30.977Z,7.09
2023-04-28T06:28:31.100Z,7.04
2023-04-28T06:29:31.092Z,7.04
2023-04-28T06:30:31.205Z,7.09
2023-04-28T06:31:31.338Z,7.09
2023-04-28T06:32:31.373Z,7.04
2023-04-28T06:33:31.460Z,7.04
2023-04-28T06:34:31.525Z,7.09
2023-04-28T06:35:31.567Z,7.09
2023-04-28T06:36:31.658Z,7.04
2023-04-28T06:37:31.740Z,6.88
2023-04-28T06:38:31.819Z,7.04
2023-04-28T06:39:31.904Z,7.09
2023-04-28T06:40:31.970Z,7.09
2023-04-28T06:41:32.056Z,7.09
2023-04-28T06:42:32.136Z,7.09
2023-04-28T06:43:38.219Z,7.09
2023-04-28T06:44:32.506Z,7.09
2023-04-28T06:45:32.414Z,7.14
2023-04-28T06:46:32.493Z,7.09
2023-04-28T06:47:32.552Z,7.09
2023-04-28T06:48:32.617Z,7.09
2023-04-28T06:49:32.757Z,7.14
2023-04-28T06:50:32.808Z,7.09
2023-04-28T06:51:32.933Z,7.09
2023-04-28T06:52:38.658Z,7.09
2023-04-28T06:53:33.079Z,7.09
2023-04-28T06:54:33.139Z,7.04
2023-04-28T06:55:33.235Z,7.09
2023-04-28T06:56:33.430Z,7.09
2023-04-28T06:57:33.387Z,7.09
2023-04-28T06:58:33.417Z,7.09
2023-04-28T06:59:33.507Z,7.09
2023-04-28T07:00:33.625Z,7.04
2023-04-28T07:01:33.649Z,7.04
2023-04-28T07:02:33.836Z,7.04
2023-04-28T07:03:33.860Z,7.09
2023-04-28T07:04:33.909Z,7.04
2023-04-28T07:05:33.988Z,7.04
2023-04-28T07:06:34.057Z,7.09
2023-04-28T07:07:34.155Z,7.09
2023-04-28T07:08:34.212Z,7.09
2023-04-28T07:09:34.272Z,7.04
2023-04-28T07:10:34.427Z,7.04
2023-04-28T07:11:34.412Z,7.04
2023-04-28T07:12:34.513Z,7.09
2023-04-28T07:13:34.565Z,7.09
2023-04-28T07:14:40.610Z,7.09
2023-04-28T07:15:34.723Z,7.09
2023-04-28T07:16:34.821Z,7.09
2023-04-28T07:17:34.918Z,7.09
2023-04-28T07:18:34.932Z,7.09
2023-04-28T07:19:35.004Z,7.09
2023-04-28T07:20:35.076Z,7.04
2023-04-28T07:21:35.159Z,7.20
2023-04-28T07:22:35.268Z,7.47
2023-04-28T07:23:35.332Z,7.09
2023-04-28T07:24:36.272Z,7.04
2023-04-28T07:25:35.484Z,7.09
2023-04-28T07:26:35.756Z,7.14
2023-04-28T07:27:35.658Z,7.09
2023-04-28T07:28:35.730Z,7.14
2023-04-28T07:29:35.824Z,7.09
2023-04-28T07:30:35.871Z,7.09
2023-04-28T07:31:36.010Z,7.09
2023-04-28T07:32:36.124Z,7.09
2023-04-28T07:33:36.180Z,7.09
2023-04-28T07:34:36.253Z,7.09
2023-04-28T07:35:36.330Z,7.04
2023-04-28T07:36:36.425Z,7.09
2023-04-28T07:37:36.547Z,7.09
2023-04-28T07:38:36.563Z,7.14
2023-04-28T07:39:36.643Z,6.93
2023-04-28T07:40:36.728Z,6.88
2023-04-28T07:41:36.828Z,7.09
2023-04-28T07:42:36.880Z,7.04
2023-04-28T07:43:36.953Z,6.88
2023-04-28T07:44:37.043Z,7.09
2023-04-28T07:45:43.185Z,7.04
2023-04-28T07:46:37.312Z,7.09
2023-04-28T07:47:37.339Z,7.09
2023-04-28T07:48:37.389Z,6.88
2023-04-28T07:49:37.475Z,6.88
2023-04-28T07:50:37.537Z,7.04
2023-04-28T07:51:37.624Z,7.04
2023-04-28T07:52:37.713Z,6.88
2023-04-28T07:53:37.768Z,6.93
2023-04-28T07:54:37.845Z,6.88
2023-04-28T07:55:37.942Z,6.88
2023-04-28T07:56:38.002Z,7.04
2023-04-28T07:57:38.087Z,7.09
2023-04-28T07:58:38.185Z,6.88
2023-04-28T07:59:38.288Z,6.88
2023-04-28T08:00:40.839Z,6.88
2023-04-28T08:01:38.444Z,6.93
2023-04-28T08:02:38.626Z,6.88
2023-04-28T08:03:38.850Z,6.93
2023-04-28T08:04:38.997Z,7.20
2023-04-28T08:05:38.853Z,6.88
2023-04-28T08:06:38.830Z,6.93
2023-04-28T08:07:38.933Z,7.04
2023-04-28T08:08:39.034Z,6.88
2023-04-28T08:09:40.104Z,6.93
2023-04-28T08:10:39.180Z,6.93
2023-04-28T08:11:39.258Z,6.88
2023-04-28T08:12:39.349Z,6.88
2023-04-28T08:13:39.416Z,6.82
2023-04-28T08:14:39.510Z,6.88
2023-04-28T08:15:39.637Z,6.88
2023-04-28T08:16:45.688Z,6.88
2023-04-28T08:17:39.801Z,6.82
2023-04-28T08:18:39.951Z,7.09
2023-04-28T08:19:40.003Z,6.88
2023-04-28T08:20:40.039Z,6.93
2023-04-28T08:21:40.102Z,6.88
2023-04-28T08:22:40.198Z,6.88
2023-04-28T08:23:40.263Z,6.98
2023-04-28T08:24:40.367Z,7.09
2023-04-28T08:25:40.470Z,6.88
2023-04-28T08:26:40.512Z,6.88
2023-04-28T08:27:40.598Z,6.88
2023-04-28T08:28:40.675Z,6.88
2023-04-28T08:29:40.790Z,7.04
2023-04-28T08:30:40.825Z,6.93
2023-04-28T08:31:40.928Z,6.88
2023-04-28T08:32:41.016Z,6.88
2023-04-28T08:33:41.126Z,6.88
2023-04-28T08:34:41.220Z,6.88
2023-04-28T08:35:41.278Z,6.88
2023-04-28T08:36:41.331Z,6.98
2023-04-28T08:37:41.403Z,6.88
2023-04-28T08:38:41.474Z,6.88
2023-04-28T08:39:41.579Z,6.88
2023-04-28T08:40:41.662Z,6.98
2023-04-28T08:41:41.725Z,6.82
2023-04-28T08:42:41.810Z,7.04
2023-04-28T08:43:41.897Z,6.82
2023-04-28T08:44:41.982Z,6.93
2023-04-28T08:45:42.075Z,6.88
2023-04-28T08:46:42.219Z,6.88
2023-04-28T08:47:48.287Z,6.88
2023-04-28T08:48:42.321Z,6.88
2023-04-28T08:49:42.430Z,6.88
2023-04-28T08:50:42.470Z,6.88
2023-04-28T08:51:42.561Z,6.93
2023-04-28T08:52:42.652Z,6.88
2023-04-28T08:54:06.157Z,6.88
2023-04-28T08:54:42.786Z,6.93
2023-04-28T08:55:42.920Z,6.88
2023-04-28T08:56:42.957Z,6.93
2023-04-28T08:57:43.022Z,6.93
2023-04-28T08:58:43.120Z,6.82
2023-04-28T08:59:43.186Z,6.93
2023-04-28T09:00:43.301Z,7.09
2023-04-28T09:01:43.409Z,6.93
2023-04-28T09:02:43.574Z,6.88
2023-04-28T09:03:43.623Z,6.88
2023-04-28T09:04:43.787Z,6.88
2023-04-28T09:05:43.746Z,6.88
2023-04-28T09:06:43.843Z,6.93
2023-04-28T09:07:43.874Z,6.88
2023-04-28T09:08:43.975Z,6.82
2023-04-28T09:09:44.033Z,6.88
2023-04-28T09:10:44.144Z,6.88
2023-04-28T09:11:44.196Z,6.88
2023-04-28T09:12:44.262Z,6.93
2023-04-28T09:13:44.360Z,6.93
2023-04-28T09:14:44.436Z,6.88
2023-04-28T09:15:44.516Z,6.88
2023-04-28T09:16:44.628Z,6.88
2023-04-28T09:17:44.769Z,6.88
2023-04-28T09:18:50.705Z,6.93
2023-04-28T09:19:44.819Z,6.93
2023-04-28T09:20:44.927Z,6.93
2023-04-28T09:21:45.046Z,6.93
2023-04-28T09:22:45.127Z,6.88
2023-04-28T09:23:45.178Z,6.93
2023-04-28T09:24:45.263Z,6.88
2023-04-28T09:25:45.345Z,6.98
2023-04-28T09:26:45.414Z,6.88
2023-04-28T09:27:45.506Z,6.93
2023-04-28T09:28:45.597Z,7.04
2023-04-28T09:29:45.695Z,6.88
2023-04-28T09:30:45.782Z,6.93
2023-04-28T09:31:46.020Z,6.93
2023-04-28T09:32:46.054Z,6.88
2023-04-28T09:33:46.066Z,6.82
2023-04-28T09:34:46.167Z,6.98
2023-04-28T09:35:46.217Z,6.88
2023-04-28T09:36:46.308Z,6.98
2023-04-28T09:37:46.396Z,6.88
2023-04-28T09:38:46.515Z,6.88
2023-04-28T09:39:46.549Z,6.88
2023-04-28T09:40:46.639Z,6.88
2023-04-28T09:41:46.735Z,6.88
2023-04-28T09:42:46.923Z,6.88
2023-04-28T09:43:46.858Z,6.93
2023-04-28T09:44:46.909Z,6.88
2023-04-28T09:45:47.021Z,6.88
2023-04-28T09:46:47.168Z,6.88
2023-04-28T09:47:47.325Z,6.98
2023-04-28T09:48:47.224Z,6.88
2023-04-28T09:49:53.277Z,6.88
2023-04-28T09:50:47.381Z,6.93
2023-04-28T09:51:47.476Z,6.88
2023-04-28T09:52:47.587Z,6.88
2023-04-28T09:53:47.632Z,6.82
2023-04-28T09:54:47.723Z,6.88
2023-04-28T09:55:47.804Z,6.88
2023-04-28T09:56:47.897Z,6.93
2023-04-28T09:57:50.053Z,6.88
2023-04-28T09:58:48.022Z,6.93
2023-04-28T09:59:48.089Z,6.88
2023-04-28T10:00:48.219Z,6.88
2023-04-28T10:01:48.430Z,6.88
2023-04-28T10:02:48.471Z,6.88
2023-04-28T10:03:48.481Z,6.88
2023-04-28T10:04:48.594Z,6.88
2023-04-28T10:05:48.648Z,6.93
2023-04-28T10:06:48.665Z,6.88
2023-04-28T10:07:48.724Z,6.88
2023-04-28T10:08:48.807Z,6.88
2023-04-28T10:09:48.897Z,6.93
2023-04-28T10:10:48.970Z,6.93
2023-04-28T10:11:49.063Z,6.88
2023-04-28T10:12:49.132Z,6.82
2023-04-28T10:13:49.201Z,6.88
2023-04-28T10:14:49.262Z,6.88
2023-04-28T10:15:49.732Z,6.88
2023-04-28T10:16:49.436Z,6.88
2023-04-28T10:17:49.593Z,6.88
2023-04-28T10:18:49.604Z,6.88
2023-04-28T10:19:49.702Z,6.88
2023-04-28T10:20:55.820Z,6.88
2023-04-28T10:21:49.848Z,6.88
2023-04-28T10:22:49.900Z,6.93
2023-04-28T10:23:49.997Z,6.88
2023-04-28T10:24:50.091Z,6.82
2023-04-28T10:25:50.180Z,6.88
2023-04-28T10:26:50.252Z,6.93
2023-04-28T10:27:50.382Z,6.71
2023-04-28T10:28:50.421Z,6.77
2023-04-28T10:29:50.523Z,6.88
2023-04-28T10:30:50.606Z,6.93
2023-04-28T10:31:50.723Z,6.93
2023-04-28T10:32:50.824Z,6.88
2023-04-28T10:33:50.864Z,6.88
2023-04-28T10:34:50.951Z,6.71
2023-04-28T10:35:51.032Z,6.88
2023-04-28T10:36:51.185Z,6.88
2023-04-28T10:37:51.202Z,6.88
2023-04-28T10:38:51.261Z,6.88
2023-04-28T10:39:51.383Z,6.93
2023-04-28T10:40:51.418Z,6.82
2023-04-28T10:41:51.602Z,6.88
2023-04-28T10:42:51.578Z,6.66
2023-04-28T10:43:51.623Z,6.82
2023-04-28T10:44:51.734Z,6.88
2023-04-28T10:45:53.801Z,6.88
2023-04-28T10:46:51.987Z,6.93
2023-04-28T10:47:52.009Z,6.82
2023-04-28T10:48:52.042Z,6.66
2023-04-28T10:49:52.121Z,6.71
2023-04-28T10:50:52.246Z,6.66
2023-04-28T10:51:58.268Z,6.66
2023-04-28T10:52:52.412Z,6.93
2023-04-28T10:53:52.446Z,6.66
2023-04-28T10:54:52.540Z,6.88
2023-04-28T10:55:52.691Z,6.71
2023-04-28T10:56:52.736Z,6.66
2023-04-28T10:57:52.803Z,6.66
2023-04-28T10:58:53.033Z,6.66
2023-04-28T10:59:53.014Z,6.71
2023-04-28T11:00:53.105Z,6.66
2023-04-28T11:01:53.192Z,6.88
2023-04-28T11:02:53.342Z,6.88
2023-04-28T11:03:53.434Z,6.66
2023-04-28T11:04:53.612Z,6.71
2023-04-28T11:05:53.500Z,6.71
2023-04-28T11:06:53.578Z,6.66
2023-04-28T11:07:53.995Z,6.93
2023-04-28T11:08:53.728Z,6.71
2023-04-28T11:09:53.783Z,6.88
2023-04-28T11:10:53.864Z,6.88
2023-04-28T11:11:53.936Z,6.66
2023-04-28T11:12:54.040Z,6.82
2023-04-28T11:13:54.087Z,6.71
2023-04-28T11:14:54.291Z,6.88
2023-04-28T11:15:54.278Z,6.77
2023-04-28T11:16:54.490Z,6.88
2023-04-28T11:17:54.433Z,6.66
2023-04-28T11:18:55.763Z,6.66
2023-04-28T11:19:54.601Z,6.77
2023-04-28T11:20:54.692Z,6.71
2023-04-28T11:21:54.801Z,6.71
2023-04-28T11:23:01.304Z,6.66
2023-04-28T11:23:54.971Z,6.71
2023-04-28T11:24:55.063Z,6.77
2023-04-28T11:25:55.124Z,6.66
2023-04-28T11:26:55.212Z,6.77
2023-04-28T11:27:55.296Z,6.77
2023-04-28T11:28:55.379Z,6.93
2023-04-28T11:29:55.504Z,6.66
2023-04-28T11:30:55.516Z,6.66
2023-04-28T11:31:55.663Z,6.66
2023-04-28T11:32:55.708Z,6.71
2023-04-28T11:33:55.798Z,6.66
2023-04-28T11:34:55.848Z,6.66
2023-04-28T11:35:55.923Z,6.66
2023-04-28T11:36:56.008Z,6.71
2023-04-28T11:37:56.086Z,6.66
2023-04-28T11:38:56.203Z,6.66
2023-04-28T11:39:56.224Z,6.66
2023-04-28T11:40:56.297Z,6.71
2023-04-28T11:41:56.391Z,6.71
2023-04-28T11:42:58.365Z,6.66
2023-04-28T11:43:56.540Z,6.66
2023-04-28T11:44:56.661Z,6.71
2023-04-28T11:45:56.774Z,6.77
2023-04-28T11:46:56.795Z,6.66
2023-04-28T11:47:56.877Z,6.71
2023-04-28T11:48:56.958Z,6.71
2023-04-28T11:49:57.043Z,6.66
2023-04-28T11:50:57.107Z,6.66
2023-04-28T11:51:57.206Z,6.71
2023-04-28T11:52:57.265Z,6.71
2023-04-28T11:54:03.316Z,6.66
2023-04-28T11:54:57.449Z,6.66
2023-04-28T11:55:57.617Z,6.71
2023-04-28T11:56:57.736Z,6.66
2023-04-28T11:57:57.685Z,6.71
2023-04-28T11:58:57.755Z,6.71
2023-04-28T11:59:57.843Z,6.71
2023-04-28T12:00:57.946Z,6.71
2023-04-28T12:01:58.004Z,6.66
2023-04-28T12:02:58.189Z,6.71
2023-04-28T12:03:58.302Z,6.71
2023-04-28T12:04:58.234Z,6.66
2023-04-28T12:05:58.327Z,6.71
2023-04-28T12:06:58.379Z,6.66
2023-04-28T12:07:58.461Z,6.66
2023-04-28T12:08:58.550Z,6.71
2023-04-28T12:09:58.615Z,6.66
2023-04-28T12:10:58.747Z,6.71
2023-04-28T12:11:58.754Z,6.66
2023-04-28T12:12:58.842Z,6.71
2023-04-28T12:13:59.830Z,6.66
2023-04-28T12:14:59.012Z,6.66
2023-04-28T12:15:59.106Z,6.66
2023-04-28T12:16:59.181Z,6.66
2023-04-28T12:17:59.298Z,6.71
2023-04-28T12:18:59.457Z,6.71
2023-04-28T12:19:59.432Z,6.66
2023-04-28T12:20:59.502Z,6.77
2023-04-28T12:21:59.582Z,6.71
2023-04-28T12:22:59.687Z,6.66
2023-04-28T12:23:59.745Z,6.66
2023-04-28T12:25:05.818Z,6.66
2023-04-28T12:25:59.936Z,6.71
2023-04-28T12:27:00.032Z,6.66
2023-04-28T12:28:00.136Z,6.71
2023-04-28T12:29:00.202Z,6.71
2023-04-28T12:30:00.281Z,6.66
2023-04-28T12:31:00.395Z,6.77
2023-04-28T12:32:00.449Z,6.71
2023-04-28T12:33:00.732Z,6.77
2023-04-28T12:34:00.652Z,6.66
2023-04-28T12:35:00.730Z,6.66
2023-04-28T12:36:00.815Z,6.66
2023-04-28T12:37:00.877Z,6.71
2023-04-28T12:38:01.007Z,6.71
2023-04-28T12:39:01.017Z,6.71
2023-04-28T12:40:01.100Z,6.71
2023-04-28T12:41:01.174Z,6.66
2023-04-28T12:42:01.271Z,6.66
2023-04-28T12:43:01.366Z,6.66
2023-04-28T12:44:01.446Z,6.66
2023-04-28T12:45:01.510Z,6.71
2023-04-28T12:46:01.633Z,6.71
2023-04-28T12:47:01.664Z,6.66
2023-04-28T12:48:01.775Z,6.66
2023-04-28T12:49:01.833Z,6.71
2023-04-28T12:50:01.911Z,6.71
2023-04-28T12:51:02.022Z,6.66
2023-04-28T12:52:02.127Z,6.71
2023-04-28T12:53:02.188Z,6.71
2023-04-28T12:54:02.277Z,6.71
2023-04-28T12:55:02.338Z,6.71
2023-04-28T12:56:08.444Z,6.66
2023-04-28T12:57:02.515Z,6.66
2023-04-28T12:58:02.590Z,6.71
2023-04-28T12:59:02.666Z,6.71
2023-04-28T13:00:02.754Z,6.71
2023-04-28T13:01:02.849Z,6.66
2023-04-28T13:02:03.089Z,6.71
2023-04-28T13:03:03.198Z,6.71
2023-04-28T13:04:03.323Z,6.71
2023-04-28T13:05:03.457Z,6.66
2023-04-28T13:06:03.239Z,6.66
2023-04-28T13:07:03.317Z,6.66
2023-04-28T13:08:03.376Z,6.71
2023-04-28T13:09:03.460Z,6.66
2023-04-28T13:10:03.538Z,6.71
2023-04-28T13:11:07.373Z,6.77
2023-04-28T13:12:03.703Z,6.66
2023-04-28T13:13:03.785Z,6.55
2023-04-28T13:14:03.871Z,6.66
2023-04-28T13:15:03.952Z,6.71
2023-04-28T13:16:04.046Z,6.66
2023-04-28T13:17:04.091Z,6.71
2023-04-28T13:18:04.234Z,6.71
2023-04-28T13:19:04.292Z,6.66